createdAt,value
2022-08-29T00:00:51.489Z,99.81
2022-08-29T00:01:51.540Z,99.81
2022-08-29T00:02:51.514Z,99.81
2022-08-29T00:03:51.546Z,99.71
2022-08-29T00:04:51.543Z,99.81
2022-08-29T00:05:51.523Z,99.81
2022-08-29T00:06:51.431Z,99.86
2022-08-29T00:07:51.434Z,99.86
2022-08-29T00:08:51.394Z,99.86
2022-08-29T00:09:51.386Z,99.76
2022-08-29T00:10:51.469Z,99.76
2022-08-29T00:11:51.358Z,99.86
2022-08-29T00:12:51.396Z,99.86
2022-08-29T00:13:51.413Z,99.96
2022-08-29T00:14:51.385Z,99.99
2022-08-29T00:15:51.386Z,99.99
2022-08-29T00:16:51.366Z,99.96
2022-08-29T00:17:51.308Z,99.96
2022-08-29T00:18:51.310Z,99.99
2022-08-29T00:19:51.371Z,99.99
2022-08-29T00:20:51.228Z,99.99
2022-08-29T00:21:51.232Z,99.99
2022-08-29T00:22:51.237Z,99.99
2022-08-29T00:23:52.296Z,99.99
2022-08-29T00:24:51.280Z,99.99
2022-08-29T00:25:51.152Z,99.99
2022-08-29T00:26:51.165Z,99.99
2022-08-29T00:27:51.159Z,99.99
2022-08-29T00:28:51.172Z,99.99
2022-08-29T00:29:51.198Z,99.99
2022-08-29T00:30:51.108Z,99.99
2022-08-29T00:31:51.244Z,99.99
2022-08-29T00:32:51.100Z,99.99
2022-08-29T00:33:52.143Z,99.99
2022-08-29T00:34:51.052Z,99.99
2022-08-29T00:35:51.032Z,99.99
2022-08-29T00:36:51.049Z,99.99
2022-08-29T00:37:51.008Z,99.99
2022-08-29T00:38:51.005Z,99.99
2022-08-29T00:39:51.001Z,99.99
2022-08-29T00:40:51.574Z,99.99
2022-08-29T00:41:50.976Z,99.99
2022-08-29T00:42:50.923Z,99.99
2022-08-29T00:43:50.931Z,99.99
2022-08-29T00:44:50.912Z,99.99
2022-08-29T00:45:50.956Z,99.99
2022-08-29T00:46:50.893Z,99.99
2022-08-29T00:47:50.901Z,99.99
2022-08-29T00:48:50.865Z,99.99
2022-08-29T00:49:50.842Z,99.99
2022-08-29T00:50:50.852Z,99.99
2022-08-29T00:51:51.844Z,99.99
2022-08-29T00:52:50.821Z,99.99
2022-08-29T00:53:50.865Z,99.99
2022-08-29T00:54:50.871Z,99.99
2022-08-29T00:55:51.281Z,99.99
2022-08-29T00:56:51.787Z,99.99
2022-08-29T00:57:50.767Z,99.99
2022-08-29T00:58:50.734Z,99.99
2022-08-29T00:59:50.720Z,99.99
2022-08-29T01:00:50.754Z,99.99
2022-08-29T01:01:50.828Z,99.99
2022-08-29T01:02:50.721Z,99.99
2022-08-29T01:03:50.668Z,99.99
2022-08-29T01:04:50.789Z,99.99
2022-08-29T01:05:50.705Z,99.99
2022-08-29T01:06:50.616Z,99.99
2022-08-29T01:07:50.622Z,99.99
2022-08-29T01:08:57.713Z,99.99
2022-08-29T01:09:51.686Z,99.99
2022-08-29T01:10:58.080Z,99.99
2022-08-29T01:11:50.559Z,99.99
2022-08-29T01:14:00.750Z,99.99
2022-08-29T01:15:00.820Z,99.99
2022-08-29T01:16:00.789Z,99.99
2022-08-29T01:17:00.719Z,99.99
2022-08-29T01:18:01.729Z,99.99
2022-08-29T01:19:01.799Z,99.99
2022-08-29T01:20:00.697Z,99.99
2022-08-29T01:21:00.668Z,99.99
2022-08-29T01:22:00.659Z,99.99
2022-08-29T01:23:00.686Z,99.99
2022-08-29T01:24:00.641Z,99.99
2022-08-29T01:25:00.641Z,99.99
2022-08-29T01:26:00.594Z,99.99
2022-08-29T01:27:00.583Z,99.99
2022-08-29T01:28:00.606Z,99.99
2022-08-29T01:29:00.566Z,99.99
2022-08-29T01:30:00.560Z,99.99
2022-08-29T01:31:00.575Z,99.99
2022-08-29T01:32:00.589Z,99.99
2022-08-29T01:33:00.549Z,99.99
2022-08-29T01:34:00.493Z,99.99
2022-08-29T01:35:00.485Z,99.99
2022-08-29T01:36:00.500Z,99.99
2022-08-29T01:37:00.444Z,99.99
2022-08-29T01:38:00.448Z,99.99
2022-08-29T01:39:00.445Z,99.99
2022-08-29T01:40:00.448Z,99.99
2022-08-29T01:41:00.426Z,99.99
2022-08-29T01:42:00.385Z,99.99
2022-08-29T01:43:00.384Z,99.99
2022-08-29T01:44:00.381Z,99.99
2022-08-29T01:45:00.383Z,99.99
2022-08-29T01:46:00.414Z,99.99
2022-08-29T01:47:02.682Z,99.99
2022-08-29T01:48:03.416Z,99.99
2022-08-29T01:49:00.318Z,99.99
2022-08-29T01:50:00.295Z,99.99
2022-08-29T01:51:00.288Z,99.99
2022-08-29T01:52:00.245Z,99.99
2022-08-29T01:53:00.246Z,99.99
2022-08-29T01:54:00.257Z,99.99
2022-08-29T01:55:00.250Z,99.99
2022-08-29T01:56:00.222Z,99.99
2022-08-29T01:57:00.189Z,99.99
2022-08-29T01:58:00.211Z,99.99
2022-08-29T01:59:00.167Z,99.99
2022-08-29T02:00:00.170Z,99.99
2022-08-29T02:01:00.259Z,99.99
2022-08-29T02:02:00.188Z,99.99
2022-08-29T02:03:00.117Z,99.99
2022-08-29T02:04:00.109Z,99.99
2022-08-29T02:05:00.137Z,99.99
2022-08-29T02:06:00.092Z,99.99
2022-08-29T02:07:00.082Z,99.99
2022-08-29T02:08:00.041Z,99.99
2022-08-29T02:09:00.065Z,99.99
2022-08-29T02:10:00.022Z,99.99
2022-08-29T02:11:00.020Z,99.99
2022-08-29T02:12:00.013Z,99.99
2022-08-29T02:12:59.991Z,99.99
2022-08-29T02:13:59.973Z,99.99
2022-08-29T02:14:59.961Z,99.99
2022-08-29T02:15:59.986Z,99.99
2022-08-29T02:16:59.943Z,99.99
2022-08-29T02:17:59.919Z,99.99
2022-08-29T02:18:59.913Z,99.99
2022-08-29T02:19:59.893Z,99.99
2022-08-29T02:20:59.932Z,99.99
2022-08-29T02:21:59.873Z,99.99
2022-08-29T02:22:59.863Z,99.99
2022-08-29T02:24:11.324Z,99.99
2022-08-29T02:25:00.835Z,99.99
2022-08-29T02:25:59.841Z,99.99
2022-08-29T02:26:59.824Z,99.99
2022-08-29T02:28:00.800Z,99.99
2022-08-29T02:28:59.793Z,99.99
2022-08-29T02:29:59.782Z,99.99
2022-08-29T02:30:59.789Z,99.99
2022-08-29T02:31:59.763Z,99.99
2022-08-29T02:32:59.734Z,99.99
2022-08-29T02:33:59.736Z,99.99
2022-08-29T02:34:59.708Z,99.99
2022-08-29T02:35:59.685Z,99.99
2022-08-29T02:37:00.695Z,99.99
2022-08-29T02:38:00.663Z,99.99
2022-08-29T02:38:59.656Z,99.99
2022-08-29T02:39:59.649Z,99.99
2022-08-29T02:40:59.687Z,99.99
2022-08-29T02:42:00.604Z,99.99
2022-08-29T02:42:59.590Z,99.99
2022-08-29T02:43:59.559Z,99.99
2022-08-29T02:44:59.579Z,99.99
2022-08-29T02:45:59.557Z,99.99
2022-08-29T02:47:00.596Z,99.99
2022-08-29T02:48:00.521Z,99.99
2022-08-29T02:49:01.484Z,99.99
2022-08-29T02:49:59.511Z,99.99
2022-08-29T02:50:59.487Z,99.99
2022-08-29T02:52:00.468Z,99.99
2022-08-29T02:53:01.486Z,99.99
2022-08-29T02:53:59.448Z,99.99
2022-08-29T02:54:59.474Z,99.99
2022-08-29T02:55:59.427Z,99.99
2022-08-29T02:57:00.419Z,99.99
2022-08-29T02:58:00.387Z,99.99
2022-08-29T02:58:59.389Z,99.99
2022-08-29T02:59:59.349Z,99.99
2022-08-29T03:00:59.399Z,99.99
2022-08-29T03:02:00.426Z,99.99
2022-08-29T03:02:59.350Z,99.99
2022-08-29T03:03:59.329Z,99.99
2022-08-29T03:04:59.311Z,99.99
2022-08-29T03:05:59.281Z,99.99
2022-08-29T03:06:59.288Z,99.99
2022-08-29T03:07:59.262Z,99.99
2022-08-29T03:08:59.251Z,99.99
2022-08-29T03:09:59.287Z,99.99
2022-08-29T03:10:59.222Z,99.99
2022-08-29T03:11:59.312Z,99.99
2022-08-29T03:13:00.222Z,99.99
2022-08-29T03:14:00.175Z,99.99
2022-08-29T03:14:59.184Z,99.99
2022-08-29T03:15:59.237Z,99.99
2022-08-29T03:16:59.230Z,99.99
2022-08-29T03:17:59.225Z,99.99
2022-08-29T03:19:00.132Z,99.99
2022-08-29T03:19:59.249Z,99.99
2022-08-29T03:20:59.125Z,99.99
2022-08-29T03:21:59.164Z,99.99
2022-08-29T03:22:59.141Z,99.99
2022-08-29T03:23:59.062Z,99.99
2022-08-29T03:24:59.053Z,99.99
2022-08-29T03:25:59.044Z,99.99
2022-08-29T03:26:59.065Z,99.99
2022-08-29T03:27:59.094Z,99.99
2022-08-29T03:28:59.075Z,99.99
2022-08-29T03:29:59.094Z,99.99
2022-08-29T03:30:59.023Z,99.99
2022-08-29T03:31:59.029Z,99.99
2022-08-29T03:32:59.026Z,99.99
2022-08-29T03:33:59.014Z,99.99
2022-08-29T03:34:59.017Z,99.99
2022-08-29T03:35:59.057Z,99.99
2022-08-29T03:36:58.953Z,99.99
2022-08-29T03:37:58.965Z,99.99
2022-08-29T03:38:58.944Z,99.99
2022-08-29T03:39:58.891Z,99.99
2022-08-29T03:40:58.864Z,99.99
2022-08-29T03:41:58.847Z,99.99
2022-08-29T03:42:58.907Z,99.99
2022-08-29T03:43:58.942Z,99.99
2022-08-29T03:44:58.887Z,99.99
2022-08-29T03:45:58.789Z,99.99
2022-08-29T03:46:59.935Z,99.99
2022-08-29T03:47:58.854Z,99.99
2022-08-29T03:48:58.758Z,99.99
2022-08-29T03:49:58.751Z,99.99
2022-08-29T04:03:38.422Z,99.99
2022-08-29T04:04:38.392Z,99.99
2022-08-29T04:05:40.403Z,99.99
2022-08-29T04:06:38.382Z,99.99
2022-08-29T04:07:38.361Z,99.99
2022-08-29T04:08:38.363Z,99.99
2022-08-29T04:09:38.337Z,99.99
2022-08-29T04:10:39.341Z,99.99
2022-08-29T04:11:38.359Z,99.99
2022-08-29T04:12:38.312Z,99.99
2022-08-29T04:13:38.312Z,99.99
2022-08-29T04:14:38.260Z,99.99
2022-08-29T04:15:38.255Z,99.99
2022-08-29T04:16:38.267Z,99.99
2022-08-29T04:17:52.833Z,99.99
2022-08-29T04:18:39.236Z,99.99
2022-08-29T04:19:38.236Z,99.99
2022-08-29T04:20:38.256Z,99.99
2022-08-29T04:21:39.185Z,99.99
2022-08-29T04:22:38.173Z,99.99
2022-08-29T04:23:38.196Z,99.99
2022-08-29T04:24:38.170Z,99.99
2022-08-29T04:25:38.131Z,99.99
2022-08-29T04:26:38.253Z,99.99
2022-08-29T04:27:39.115Z,99.99
2022-08-29T04:28:38.123Z,99.99
2022-08-29T04:29:38.101Z,99.99
2022-08-29T04:30:38.058Z,99.99
2022-08-29T04:31:38.152Z,99.99
2022-08-29T04:32:39.051Z,99.99
2022-08-29T04:33:39.048Z,99.99
2022-08-29T04:34:38.015Z,99.99
2022-08-29T04:35:37.998Z,99.99
2022-08-29T04:36:39.996Z,99.99
2022-08-29T04:37:37.988Z,99.99
2022-08-29T04:38:37.986Z,99.99
2022-08-29T04:39:38.939Z,99.99
2022-08-29T04:40:37.963Z,99.99
2022-08-29T04:41:37.919Z,99.99
2022-08-29T04:42:37.916Z,99.99
2022-08-29T04:43:37.919Z,99.99
2022-08-29T04:44:37.895Z,99.99
2022-08-29T04:45:37.913Z,99.99
2022-08-29T04:46:37.882Z,99.99
2022-08-29T04:47:37.839Z,99.99
2022-08-29T04:48:37.835Z,99.99
2022-08-29T04:49:37.810Z,99.99
2022-08-29T04:50:37.791Z,99.99
2022-08-29T04:51:37.802Z,99.99
2022-08-29T04:52:37.798Z,99.99
2022-08-29T04:53:37.781Z,99.99
2022-08-29T04:54:37.809Z,99.99
2022-08-29T04:55:37.750Z,99.99
2022-08-29T04:56:37.714Z,99.99
2022-08-29T04:57:37.717Z,99.99
2022-08-29T04:58:37.693Z,99.99
2022-08-29T04:59:37.674Z,99.99
2022-08-29T05:00:38.534Z,99.99
2022-08-29T05:01:37.699Z,99.99
2022-08-29T05:02:37.698Z,99.99
2022-08-29T05:03:37.647Z,99.99
2022-08-29T05:04:37.635Z,99.99
2022-08-29T05:05:37.614Z,99.99
2022-08-29T05:06:37.593Z,99.99
2022-08-29T05:07:38.332Z,99.99
2022-08-29T05:08:37.583Z,99.99
2022-08-29T05:09:37.557Z,99.99
2022-08-29T05:10:37.561Z,99.99
2022-08-29T05:11:37.524Z,99.99
2022-08-29T05:12:37.493Z,99.99
2022-08-29T05:13:37.511Z,99.99
2022-08-29T05:14:37.499Z,99.99
2022-08-29T05:15:37.534Z,99.99
2022-08-29T05:16:37.469Z,99.99
2022-08-29T05:17:37.425Z,99.99
2022-08-29T05:18:37.425Z,99.99
2022-08-29T05:19:37.427Z,99.99
2022-08-29T05:20:38.393Z,99.99
2022-08-29T05:21:37.384Z,99.99
2022-08-29T05:22:37.406Z,99.99
2022-08-29T05:23:37.347Z,99.99
2022-08-29T05:24:37.340Z,99.99
2022-08-29T05:25:37.336Z,99.99
2022-08-29T05:26:37.308Z,99.99
2022-08-29T05:27:37.286Z,99.99
2022-08-29T05:28:38.278Z,99.99
2022-08-29T05:29:37.297Z,99.99
2022-08-29T05:30:37.286Z,99.99
2022-08-29T05:31:37.366Z,99.99
2022-08-29T05:32:37.218Z,99.99
2022-08-29T05:33:39.258Z,99.99
2022-08-29T05:34:37.218Z,99.99
2022-08-29T05:35:37.197Z,99.99
2022-08-29T05:36:37.207Z,99.99
2022-08-29T05:37:37.160Z,99.99
2022-08-29T05:38:37.147Z,99.99
2022-08-29T05:39:37.176Z,99.99
2022-08-29T05:40:37.198Z,99.99
2022-08-29T05:41:38.758Z,99.99
2022-08-29T05:42:37.090Z,99.99
2022-08-29T05:43:37.085Z,99.99
2022-08-29T05:44:37.079Z,99.99
2022-08-29T05:45:37.080Z,99.99
2022-08-29T05:46:37.084Z,99.99
2022-08-29T05:47:37.031Z,99.99
2022-08-29T05:48:37.010Z,99.99
2022-08-29T05:49:37.022Z,99.99
2022-08-29T05:50:37.991Z,99.99
2022-08-29T05:51:39.695Z,99.99
2022-08-29T05:52:37.030Z,99.99
2022-08-29T05:53:36.941Z,99.99
2022-08-29T05:54:36.951Z,99.99
2022-08-29T05:55:37.924Z,99.99
2022-08-29T05:56:36.913Z,99.99
2022-08-29T05:57:36.906Z,99.99
2022-08-29T05:58:36.890Z,99.99
2022-08-29T05:59:36.892Z,99.99
2022-08-29T06:00:36.853Z,99.99
2022-08-29T06:01:36.834Z,99.99
2022-08-29T06:02:36.917Z,99.99
2022-08-29T06:03:36.969Z,99.99
2022-08-29T06:04:36.816Z,99.99
2022-08-29T06:05:36.784Z,99.99
2022-08-29T06:06:36.784Z,99.99
2022-08-29T06:07:36.776Z,99.99
2022-08-29T06:08:36.734Z,99.99
2022-08-29T06:09:36.747Z,99.99
2022-08-29T06:10:37.724Z,99.99
2022-08-29T06:11:36.715Z,99.99
2022-08-29T06:12:36.704Z,99.99
2022-08-29T06:13:36.684Z,99.99
2022-08-29T06:14:36.696Z,99.99
2022-08-29T06:15:36.703Z,99.99
2022-08-29T06:16:36.655Z,99.99
2022-08-29T06:17:36.625Z,99.99
2022-08-29T06:18:36.624Z,99.99
2022-08-29T06:19:36.627Z,99.99
2022-08-29T06:20:36.600Z,99.99
2022-08-29T06:21:36.567Z,99.99
2022-08-29T06:22:40.413Z,99.99
2022-08-29T06:23:36.565Z,99.99
2022-08-29T06:24:36.581Z,99.99
2022-08-29T06:25:40.422Z,99.99
2022-08-29T06:26:36.522Z,99.99
2022-08-29T06:27:36.527Z,99.99
2022-08-29T06:28:36.467Z,99.99
2022-08-29T06:29:43.006Z,99.99
2022-08-29T06:30:37.513Z,99.99
2022-08-29T06:31:36.468Z,99.87
2022-08-29T06:32:36.430Z,99.66
2022-08-29T06:33:36.431Z,99.66
2022-08-29T06:34:36.448Z,99.56
2022-08-29T06:35:36.402Z,99.46
2022-08-29T06:36:36.889Z,99.32
2022-08-29T06:37:36.370Z,98.81
2022-08-29T06:38:36.360Z,98.40
2022-08-29T06:39:36.360Z,98.16
2022-08-29T06:40:36.484Z,98.05
2022-08-29T06:41:36.320Z,97.65
2022-08-29T06:42:36.292Z,97.50
2022-08-29T06:43:36.311Z,97.20
2022-08-29T06:44:36.314Z,97.00
2022-08-29T06:45:36.261Z,96.80
2022-08-29T06:46:36.315Z,96.49
2022-08-29T06:47:36.272Z,96.19
2022-08-29T06:48:36.232Z,95.54
2022-08-29T06:49:36.233Z,94.83
2022-08-29T06:50:36.198Z,94.43
2022-08-29T06:51:36.196Z,94.43
2022-08-29T06:52:36.184Z,94.43
2022-08-29T06:53:37.437Z,94.38
2022-08-29T06:54:36.164Z,94.18
2022-08-29T06:55:36.152Z,94.08
2022-08-29T06:56:37.069Z,93.98
2022-08-29T06:57:36.104Z,94.18
2022-08-29T06:58:36.124Z,94.48
2022-08-29T06:59:36.094Z,94.38
2022-08-29T07:00:36.077Z,94.38
2022-08-29T07:01:36.151Z,94.18
2022-08-29T07:02:36.072Z,93.43
2022-08-29T07:03:36.025Z,92.82
2022-08-29T07:04:36.029Z,92.72
2022-08-29T07:05:36.021Z,93.13
2022-08-29T07:06:35.976Z,92.82
2022-08-29T07:07:36.021Z,92.58
2022-08-29T07:08:36.350Z,92.38
2022-08-29T07:09:36.966Z,91.97
2022-08-29T07:10:36.965Z,91.87
2022-08-29T07:11:40.831Z,91.77
2022-08-29T07:12:36.897Z,91.57
2022-08-29T07:13:35.904Z,91.57
2022-08-29T07:14:36.878Z,91.77
2022-08-29T07:15:35.913Z,91.77
2022-08-29T07:16:35.856Z,91.87
2022-08-29T07:17:35.860Z,91.53
2022-08-29T07:18:35.830Z,91.22
2022-08-29T07:19:35.825Z,90.82
2022-08-29T07:20:35.787Z,90.22
2022-08-29T07:21:35.789Z,90.22
2022-08-29T07:22:35.779Z,89.67
2022-08-29T07:23:35.759Z,89.37
2022-08-29T07:24:35.779Z,89.17
2022-08-29T07:25:35.746Z,88.66
2022-08-29T07:26:35.756Z,88.46
2022-08-29T07:27:35.689Z,88.06
2022-08-29T07:28:35.681Z,87.85
2022-08-29T07:29:35.690Z,87.62
2022-08-29T07:30:35.708Z,87.82
2022-08-29T07:31:35.642Z,87.92
2022-08-29T07:32:35.651Z,88.22
2022-08-29T07:33:35.612Z,88.22
2022-08-29T07:34:35.632Z,88.52
2022-08-29T07:35:35.632Z,88.42
2022-08-29T07:36:35.590Z,87.92
2022-08-29T07:37:35.574Z,87.67
2022-08-29T07:38:35.700Z,87.98
2022-08-29T07:39:35.562Z,87.77
2022-08-29T07:40:35.628Z,88.18
2022-08-29T07:41:35.525Z,88.07
2022-08-29T07:42:35.503Z,88.48
2022-08-29T07:43:35.503Z,88.28
2022-08-29T07:44:35.484Z,88.48
2022-08-29T07:45:35.591Z,88.38
2022-08-29T07:46:35.462Z,88.78
2022-08-29T07:47:35.435Z,87.67
2022-08-29T07:48:36.414Z,88.74
2022-08-29T07:49:41.014Z,88.74
2022-08-29T07:50:36.417Z,86.93
2022-08-29T07:51:35.411Z,86.12
2022-08-29T07:52:35.385Z,85.82
2022-08-29T07:53:35.375Z,86.52
2022-08-29T07:54:35.379Z,86.43
2022-08-29T07:55:35.358Z,85.92
2022-08-29T07:56:37.984Z,85.92
2022-08-29T07:57:39.744Z,85.58
2022-08-29T07:58:35.317Z,85.68
2022-08-29T07:59:35.277Z,85.17
2022-08-29T08:00:36.287Z,84.97
2022-08-29T08:01:35.312Z,84.88
2022-08-29T08:02:35.306Z,84.37
2022-08-29T08:03:35.238Z,83.76
2022-08-29T08:04:35.230Z,83.26
2022-08-29T08:05:36.196Z,83.53
2022-08-29T08:06:36.177Z,82.92
2022-08-29T08:07:35.416Z,82.12
2022-08-29T08:08:35.161Z,81.92
2022-08-29T08:09:36.140Z,82.82
2022-08-29T08:10:36.139Z,83.63
2022-08-29T08:11:35.120Z,83.69
2022-08-29T08:12:35.146Z,83.59
2022-08-29T08:13:35.097Z,84.09
2022-08-29T08:14:36.082Z,83.99
2022-08-29T08:15:35.099Z,83.59
2022-08-29T08:16:35.136Z,83.59
2022-08-29T08:17:36.058Z,83.35
2022-08-29T08:18:35.044Z,83.25
2022-08-29T08:19:35.013Z,82.75
2022-08-29T08:20:35.022Z,82.24
2022-08-29T08:21:35.006Z,81.44
2022-08-29T08:22:34.996Z,80.50
2022-08-29T08:23:34.961Z,80.19
2022-08-29T08:24:34.968Z,81.20
2022-08-29T08:25:34.955Z,80.10
2022-08-29T08:26:34.935Z,79.69
2022-08-29T08:27:38.117Z,79.96
2022-08-29T08:28:35.916Z,80.36
2022-08-29T08:29:34.915Z,79.96
2022-08-29T08:30:35.799Z,77.35
2022-08-29T08:31:34.900Z,77.81
2022-08-29T08:32:34.873Z,77.61
2022-08-29T08:33:35.308Z,76.61
2022-08-29T08:34:36.046Z,77.51
2022-08-29T08:35:34.990Z,77.78
2022-08-29T08:36:38.825Z,77.98
2022-08-29T08:37:35.776Z,78.18
2022-08-29T08:38:34.770Z,78.08
2022-08-29T08:39:34.768Z,77.34
2022-08-29T08:40:34.844Z,77.34
2022-08-29T08:41:34.734Z,77.34
2022-08-29T08:42:34.717Z,78.14
2022-08-29T08:43:34.718Z,74.84
2022-08-29T08:44:35.299Z,75.63
2022-08-29T08:45:34.739Z,76.54
2022-08-29T08:46:34.667Z,76.24
2022-08-29T08:47:34.663Z,76.24
2022-08-29T08:48:34.669Z,76.74
2022-08-29T08:49:34.629Z,75.54
2022-08-29T08:50:34.631Z,77.04
2022-08-29T08:51:34.611Z,76.64
2022-08-29T08:52:34.582Z,77.94
2022-08-29T08:53:35.591Z,77.94
2022-08-29T08:54:34.573Z,77.34
2022-08-29T08:55:34.562Z,77.20
2022-08-29T08:56:34.541Z,73.63
2022-08-29T08:57:34.519Z,72.43
2022-08-29T08:58:34.528Z,72.73
2022-08-29T08:59:34.490Z,73.19
2022-08-29T09:00:34.516Z,73.50
2022-08-29T09:01:34.498Z,73.50
2022-08-29T09:02:34.510Z,73.39
2022-08-29T09:03:35.433Z,74.30
2022-08-29T09:04:34.468Z,75.00
2022-08-29T09:05:34.442Z,76.10
2022-08-29T09:06:34.413Z,75.87
2022-08-29T09:07:34.400Z,75.26
2022-08-29T09:08:34.394Z,74.87
2022-08-29T09:09:34.416Z,75.83
2022-08-29T09:10:34.387Z,75.02
2022-08-29T09:11:34.366Z,74.73
2022-08-29T09:12:34.390Z,73.53
2022-08-29T09:13:34.323Z,71.89
2022-08-29T09:14:34.333Z,72.69
2022-08-29T09:15:34.319Z,73.19
2022-08-29T09:16:34.358Z,73.39
2022-08-29T09:17:36.434Z,73.36
2022-08-29T09:18:35.142Z,72.66
2022-08-29T09:19:35.258Z,72.45
2022-08-29T09:20:35.247Z,72.02
2022-08-29T09:21:41.168Z,73.02
2022-08-29T09:22:37.237Z,68.93
2022-08-29T09:23:34.216Z,70.03
2022-08-29T09:24:35.188Z,70.23
2022-08-29T09:25:34.196Z,70.19
2022-08-29T09:26:34.159Z,69.79
2022-08-29T09:27:34.139Z,70.39
2022-08-29T09:28:36.172Z,71.09
2022-08-29T09:29:34.129Z,70.86
2022-08-29T09:30:34.125Z,72.25
2022-08-29T09:31:34.241Z,71.26
2022-08-29T09:32:34.091Z,70.42
2022-08-29T09:33:34.077Z,70.23
2022-08-29T09:34:50.823Z,70.42
2022-08-29T09:35:35.112Z,69.62
2022-08-29T09:36:34.040Z,67.03
2022-08-29T09:37:34.033Z,68.03
2022-08-29T09:38:34.014Z,68.23
2022-08-29T09:39:33.989Z,67.33
2022-08-29T09:40:34.084Z,66.24
2022-08-29T09:41:33.982Z,68.13
2022-08-29T09:42:33.967Z,69.02
2022-08-29T09:43:33.934Z,69.09
2022-08-29T09:44:33.931Z,67.60
2022-08-29T09:45:33.979Z,67.30
2022-08-29T09:46:33.904Z,67.40
2022-08-29T09:47:33.885Z,68.16
2022-08-29T10:03:59.394Z,65.35
2022-08-29T10:04:59.017Z,65.35
2022-08-29T10:05:58.993Z,65.45
2022-08-29T10:06:58.961Z,64.82
2022-08-29T10:07:58.961Z,65.61
2022-08-29T10:08:58.932Z,63.82
2022-08-29T10:09:58.932Z,65.61
2022-08-29T10:10:58.913Z,65.22
2022-08-29T10:11:58.914Z,66.01
2022-08-29T10:12:58.885Z,64.62
2022-08-29T10:13:59.873Z,64.12
2022-08-29T10:14:58.853Z,63.92
2022-08-29T10:15:58.868Z,64.62
2022-08-29T10:16:58.897Z,64.09
2022-08-29T10:17:58.815Z,65.19
2022-08-29T10:18:58.838Z,64.98
2022-08-29T10:19:58.806Z,65.45
2022-08-29T10:20:58.797Z,62.67
2022-08-29T10:21:58.766Z,63.24
2022-08-29T10:22:58.767Z,61.65
2022-08-29T10:23:58.751Z,61.35
2022-08-29T10:24:58.738Z,62.57
2022-08-29T10:25:58.745Z,62.18
2022-08-29T10:26:58.707Z,62.64
2022-08-29T10:27:58.687Z,62.74
2022-08-29T10:28:58.690Z,64.26
2022-08-29T10:29:58.649Z,63.49
2022-08-29T10:30:58.682Z,62.80
2022-08-29T10:31:59.694Z,62.70
2022-08-29T10:32:58.634Z,63.76
2022-08-29T10:33:58.611Z,62.87
2022-08-29T10:34:58.583Z,62.57
2022-08-29T10:35:58.603Z,63.10
2022-08-29T10:36:58.559Z,62.80
2022-08-29T10:37:58.551Z,63.79
2022-08-29T10:38:58.529Z,63.20
2022-08-29T10:39:58.578Z,63.07
2022-08-29T10:40:58.522Z,61.78
2022-08-29T10:41:58.506Z,63.46
2022-08-29T10:42:58.474Z,60.22
2022-08-29T10:43:58.475Z,61.41
2022-08-29T10:44:58.471Z,61.34
2022-08-29T10:45:58.492Z,63.43
2022-08-29T10:46:58.434Z,63.66
2022-08-29T10:47:58.421Z,63.16
2022-08-29T10:48:58.414Z,67.27
2022-08-29T10:49:58.407Z,66.27
2022-08-29T10:50:58.404Z,66.67
2022-08-29T10:51:58.364Z,65.68
2022-08-29T10:52:58.419Z,67.67
2022-08-29T10:54:00.346Z,68.00
2022-08-29T10:54:58.307Z,67.27
2022-08-29T10:56:01.069Z,64.53
2022-08-29T10:56:59.277Z,65.99
2022-08-29T10:57:58.314Z,64.73
2022-08-29T10:58:58.262Z,60.94
2022-08-29T10:59:58.257Z,59.72
2022-08-29T11:00:58.341Z,56.15
2022-08-29T11:01:58.938Z,55.24
2022-08-29T11:02:58.218Z,56.02
2022-08-29T11:03:58.266Z,56.45
2022-08-29T11:04:59.180Z,57.41
2022-08-29T11:05:58.182Z,60.21
2022-08-29T11:06:58.181Z,60.74
2022-08-29T11:07:58.163Z,61.36
2022-08-29T11:08:58.157Z,62.18
2022-08-29T11:09:58.191Z,62.58
2022-08-29T11:10:58.176Z,62.98
2022-08-29T11:11:58.115Z,64.30
2022-08-29T11:12:58.084Z,58.27
2022-08-29T11:14:03.521Z,58.34
2022-08-29T11:14:59.066Z,58.34
2022-08-29T11:15:58.112Z,58.02
2022-08-29T11:16:58.043Z,58.16
2022-08-29T11:17:59.029Z,58.23
2022-08-29T11:18:58.033Z,57.90
2022-08-29T11:19:59.012Z,56.67
2022-08-29T11:20:58.033Z,55.94
2022-08-29T11:21:57.984Z,55.82
2022-08-29T11:22:57.955Z,55.94
2022-08-29T11:23:57.955Z,55.94
2022-08-29T11:24:57.925Z,54.63
2022-08-29T11:25:57.954Z,55.10
2022-08-29T11:26:57.935Z,53.30
2022-08-29T11:27:57.897Z,53.27
2022-08-29T11:28:57.867Z,52.75
2022-08-29T11:29:57.887Z,51.84
2022-08-29T11:30:57.937Z,51.72
2022-08-29T11:31:57.900Z,52.04
2022-08-29T11:32:57.815Z,52.48
2022-08-29T11:33:57.829Z,52.93
2022-08-29T11:34:57.848Z,55.22
2022-08-29T11:36:01.141Z,55.30
2022-08-29T11:36:58.769Z,54.58
2022-08-29T11:37:57.770Z,53.17
2022-08-29T11:38:57.769Z,52.28
2022-08-29T11:39:57.797Z,53.02
2022-08-29T11:41:58.825Z,50.31
2022-08-29T11:42:57.732Z,50.19
2022-08-29T11:43:58.684Z,50.68
2022-08-29T11:44:57.671Z,50.95
2022-08-29T11:45:57.682Z,50.93
2022-08-29T11:46:57.918Z,49.85
2022-08-29T11:47:57.644Z,46.60
2022-08-29T11:48:59.789Z,47.29
2022-08-29T11:49:57.615Z,48.37
2022-08-29T11:50:57.644Z,46.41
2022-08-29T11:51:57.573Z,47.39
2022-08-29T11:52:57.605Z,47.66
2022-08-29T11:53:57.574Z,47.07
2022-08-29T11:54:57.541Z,45.79
2022-08-29T11:55:57.548Z,47.86
2022-08-29T11:56:57.524Z,45.01
2022-08-29T11:58:01.920Z,46.56
2022-08-29T11:58:58.498Z,43.24
2022-08-29T11:59:57.495Z,41.80
2022-08-29T12:00:57.496Z,42.52
2022-08-29T12:01:57.520Z,46.03
2022-08-29T12:02:57.448Z,44.66
2022-08-29T12:03:57.426Z,45.84
2022-08-29T12:04:57.425Z,46.43
2022-08-29T12:05:57.398Z,46.03
2022-08-29T12:06:57.379Z,45.99
2022-08-29T12:08:00.243Z,45.67
2022-08-29T12:09:04.504Z,41.71
2022-08-29T12:09:58.369Z,41.76
2022-08-29T12:10:57.340Z,43.12
2022-08-29T12:11:57.316Z,41.33
2022-08-29T12:12:57.330Z,38.92
2022-08-29T12:13:57.313Z,40.47
2022-08-29T12:14:57.296Z,40.16
2022-08-29T12:15:57.319Z,40.92
2022-08-29T12:16:57.285Z,40.00
2022-08-29T12:18:04.474Z,39.98
2022-08-29T12:18:58.263Z,39.67
2022-08-29T12:19:57.244Z,38.96
2022-08-29T12:20:57.232Z,37.01
2022-08-29T12:21:57.224Z,37.70
2022-08-29T12:22:57.184Z,37.41
2022-08-29T12:23:57.193Z,37.30
2022-08-29T12:24:57.754Z,38.06
2022-08-29T12:26:21.398Z,37.63
2022-08-29T12:26:58.132Z,37.02
2022-08-29T12:27:57.160Z,36.18
2022-08-29T12:28:57.122Z,35.29
2022-08-29T12:29:57.105Z,36.22
2022-08-29T12:30:57.095Z,34.93
2022-08-29T12:32:17.821Z,33.46
2022-08-29T12:32:58.066Z,34.53
2022-08-29T12:33:57.049Z,32.76
2022-08-29T12:34:57.029Z,32.37
2022-08-29T12:35:57.031Z,33.34
2022-08-29T12:36:57.008Z,32.75
2022-08-29T12:37:57.988Z,30.71
2022-08-29T12:38:56.987Z,30.76
2022-08-29T12:39:57.030Z,31.26
2022-08-29T12:40:57.969Z,31.21
2022-08-29T12:41:56.940Z,33.15
2022-08-29T12:42:56.937Z,33.83
2022-08-29T12:43:56.904Z,33.31
2022-08-29T12:44:56.905Z,31.40
2022-08-29T12:45:56.900Z,31.13
2022-08-29T12:46:56.943Z,31.79
2022-08-29T12:47:56.866Z,35.86
2022-08-29T12:48:58.016Z,35.26
2022-08-29T12:49:56.833Z,31.96
2022-08-29T12:50:56.842Z,34.61
2022-08-29T12:51:57.807Z,34.08
2022-08-29T12:52:56.804Z,30.93
2022-08-29T12:53:56.794Z,32.67
2022-08-29T12:54:56.783Z,33.20
2022-08-29T12:55:56.794Z,32.21
2022-08-29T12:56:56.743Z,31.12
2022-08-29T12:57:56.748Z,28.33
2022-08-29T12:58:56.726Z,30.58
2022-08-29T12:59:56.718Z,30.40
2022-08-29T13:00:56.762Z,31.45
2022-08-29T13:01:56.703Z,32.21
2022-08-29T13:02:56.722Z,32.21
2022-08-29T13:03:56.669Z,30.47
2022-08-29T13:04:57.657Z,30.48
2022-08-29T13:05:56.662Z,32.55
2022-08-29T13:06:56.639Z,34.36
2022-08-29T13:07:56.618Z,32.70
2022-08-29T13:08:56.616Z,32.13
2022-08-29T13:09:57.590Z,30.61
2022-08-29T13:10:56.601Z,32.84
2022-08-29T13:11:56.774Z,31.48
2022-08-29T13:12:56.580Z,31.50
2022-08-29T13:13:56.544Z,32.32
2022-08-29T13:14:56.625Z,33.18
2022-08-29T13:15:56.610Z,33.46
2022-08-29T13:16:56.522Z,32.84
2022-08-29T13:17:56.542Z,30.91
2022-08-29T13:19:10.973Z,31.58
2022-08-29T13:19:57.473Z,33.12
2022-08-29T13:20:56.582Z,30.50
2022-08-29T13:21:56.472Z,33.20
2022-08-29T13:22:56.474Z,31.44